sensor_id;sensor_type;location;lat;lon;timestamp;pressure;altitude;pressure_sealevel;temperature;humidity
9281;BME280;4679;47.966;7.958;2024-03-07T06:54:57;97350.84;;;2.47;91.07
9281;BME280;4679;47.966;7.958;2024-03-07T06:56:58;97352.28;;;2.50;90.47
9281;BME280;4679;47.966;7.958;2024-03-07T06:59:00;97356.91;;;2.47;90.96
9281;BME280;4679;47.966;7.958;2024-03-07T07:01:04;97349.22;;;2.46;90.48
9281;BME280;4679;47.966;7.958;2024-03-07T07:03:09;97348.22;;;2.47;90.85
9281;BME280;4679;47.966;7.958;2024-03-07T07:05:13;97346.06;;;2.51;90.90
9281;BME280;4679;47.966;7.958;2024-03-07T07:07:15;97351.72;;;2.54;90.72
9281;BME280;4679;47.966;7.958;2024-03-07T07:09:17;97349.56;;;2.58;91.13
9281;BME280;4679;47.966;7.958;2024-03-07T07:11:20;97350.38;;;2.58;90.73
9281;BME280;4679;47.966;7.958;2024-03-07T07:13:22;97350.19;;;2.60;90.74
9281;BME280;4679;47.966;7.958;2024-03-07T07:15:23;97344.72;;;2.61;90.93
9281;BME280;4679;47.966;7.958;2024-03-07T07:17:25;97345.34;;;2.63;90.66
9281;BME280;4679;47.966;7.958;2024-03-07T07:19:29;97343.19;;;2.67;90.68
9281;BME280;4679;47.966;7.958;2024-03-07T07:21:30;97340.38;;;2.68;90.21
9281;BME280;4679;47.966;7.958;2024-03-07T07:23:32;97346.16;;;2.64;90.25
9281;BME280;4679;47.966;7.958;2024-03-07T07:25:34;97349.16;;;2.61;90.80
9281;BME280;4679;47.966;7.958;2024-03-07T07:27:37;97345.53;;;2.62;90.57
9281;BME280;4679;47.966;7.958;2024-03-07T07:29:38;97351.78;;;2.61;90.56
9281;BME280;4679;47.966;7.958;2024-03-07T07:31:40;97348.78;;;2.64;90.86
9281;BME280;4679;47.966;7.958;2024-03-07T07:33:41;97349.22;;;2.67;90.31
9281;BME280;4679;47.966;7.958;2024-03-07T07:35:43;97346.06;;;2.72;90.90
9281;BME280;4679;47.966;7.958;2024-03-07T07:37:47;97342.09;;;2.82;90.97
9281;BME280;4679;47.966;7.958;2024-03-07T07:39:48;97341.75;;;2.86;90.92
9281;BME280;4679;47.966;7.958;2024-03-07T07:41:50;97342.72;;;2.85;90.54
9281;BME280;4679;47.966;7.958;2024-03-07T07:43:53;97336.72;;;2.91;90.42
9281;BME280;4679;47.966;7.958;2024-03-07T07:45:54;97337.22;;;3.01;90.94
9281;BME280;4679;47.966;7.958;2024-03-07T07:47:56;97334.44;;;3.09;90.84
9281;BME280;4679;47.966;7.958;2024-03-07T07:49:59;97336.69;;;3.12;90.72
9281;BME280;4679;47.966;7.958;2024-03-07T07:51:59;97324.03;;;3.22;90.69
9281;BME280;4679;47.966;7.958;2024-03-07T07:54:01;97323.91;;;3.30;90.41
9281;BME280;4679;47.966;7.958;2024-03-07T07:56:02;97321.72;;;3.34;90.42
9281;BME280;4679;47.966;7.958;2024-03-07T07:58:05;97324.34;;;3.34;90.60
9281;BME280;4679;47.966;7.958;2024-03-07T08:00:09;97323.13;;;3.36;90.44
9281;BME280;4679;47.966;7.958;2024-03-07T08:02:10;97333.28;;;3.46;90.67
9281;BME280;4679;47.966;7.958;2024-03-07T08:04:12;97328.06;;;3.52;90.59
9281;BME280;4679;47.966;7.958;2024-03-07T08:06:13;97320.44;;;3.58;90.05
9281;BME280;4679;47.966;7.958;2024-03-07T08:08:15;97320.66;;;3.63;90.18
9281;BME280;4679;47.966;7.958;2024-03-07T08:10:18;97320.28;;;3.66;90.37
9281;BME280;4679;47.966;7.958;2024-03-07T08:12:20;97327.75;;;3.69;90.38
9281;BME280;4679;47.966;7.958;2024-03-07T08:14:21;97319.09;;;3.75;90.41
9281;BME280;4679;47.966;7.958;2024-03-07T08:16:24;97305.78;;;3.83;90.19
9281;BME280;4679;47.966;7.958;2024-03-07T08:18:25;97304.84;;;3.91;90.13
9281;BME280;4679;47.966;7.958;2024-03-07T08:20:28;97302.03;;;3.99;90.18
9281;BME280;4679;47.966;7.958;2024-03-07T08:22:30;97306.69;;;4.03;89.98
9281;BME280;4679;47.966;7.958;2024-03-07T08:24:30;97303.25;;;4.03;89.97
9281;BME280;4679;47.966;7.958;2024-03-07T08:26:32;97299.03;;;4.08;90.45
9281;BME280;4679;47.966;7.958;2024-03-07T08:28:33;97299.84;;;4.15;89.89
9281;BME280;4679;47.966;7.958;2024-03-07T08:30:35;97297.41;;;4.14;90.14
9281;BME280;4679;47.966;7.958;2024-03-07T08:32:38;97307.09;;;4.13;90.16
9281;BME280;4679;47.966;7.958;2024-03-07T08:34:40;97299.22;;;4.13;90.02
9281;BME280;4679;47.966;7.958;2024-03-07T08:36:42;97297.84;;;4.11;90.22
9281;BME280;4679;47.966;7.958;2024-03-07T08:38:43;97297.41;;;4.14;89.98
9281;BME280;4679;47.966;7.958;2024-03-07T08:40:46;97293.16;;;4.06;90.22
9281;BME280;4679;47.966;7.958;2024-03-07T08:42:49;97286.31;;;4.05;89.96
9281;BME280;4679;47.966;7.958;2024-03-07T08:44:51;97290.34;;;4.08;90.21
9281;BME280;4679;47.966;7.958;2024-03-07T08:46:52;97292.16;;;4.14;90.32
9281;BME280;4679;47.966;7.958;2024-03-07T08:48:55;97286.72;;;4.15;90.49
9281;BME280;4679;47.966;7.958;2024-03-07T08:50:56;97291.59;;;4.25;90.10
9281;BME280;4679;47.966;7.958;2024-03-07T08:52:58;97297.28;;;4.35;90.16
9281;BME280;4679;47.966;7.958;2024-03-07T08:55:00;97300.09;;;4.34;90.01
9281;BME280;4679;47.966;7.958;2024-03-07T08:57:01;97290.41;;;4.28;90.28
9281;BME280;4679;47.966;7.958;2024-03-07T08:59:03;97297.22;;;4.15;90.09
9281;BME280;4679;47.966;7.958;2024-03-07T09:01:04;97288.97;;;4.12;90.15
9281;BME280;4679;47.966;7.958;2024-03-07T09:03:06;97285.47;;;3.98;89.92
9281;BME280;4679;47.966;7.958;2024-03-07T09:05:11;97288.88;;;3.92;90.33
9281;BME280;4679;47.966;7.958;2024-03-07T09:07:12;97284.88;;;3.96;90.42
9281;BME280;4679;47.966;7.958;2024-03-07T09:09:15;97292.59;;;4.11;90.36
9281;BME280;4679;47.966;7.958;2024-03-07T09:11:19;97294.84;;;4.34;89.86
9281;BME280;4679;47.966;7.958;2024-03-07T09:13:21;97286.16;;;4.59;89.82
9281;BME280;4679;47.966;7.958;2024-03-07T09:15:22;97280.13;;;4.72;89.94
9281;BME280;4679;47.966;7.958;2024-03-07T09:17:23;97279.09;;;4.80;89.44
9281;BME280;4679;47.966;7.958;2024-03-07T09:19:25;97273.03;;;4.92;89.74
9281;BME280;4679;47.966;7.958;2024-03-07T09:21:29;97274.81;;;5.05;89.87
9281;BME280;4679;47.966;7.958;2024-03-07T09:23:31;97277.47;;;5.05;89.06
9281;BME280;4679;47.966;7.958;2024-03-07T09:25:32;97272.81;;;5.07;89.61
9281;BME280;4679;47.966;7.958;2024-03-07T09:27:34;97271.16;;;5.26;89.22
9281;BME280;4679;47.966;7.958;2024-03-07T09:29:36;97276.81;;;5.29;89.11
9281;BME280;4679;47.966;7.958;2024-03-07T09:31:38;97263.78;;;5.61;88.56
9281;BME280;4679;47.966;7.958;2024-03-07T09:33:40;97266.91;;;5.83;88.99
9281;BME280;4679;47.966;7.958;2024-03-07T09:35:42;97271.16;;;5.84;88.20
9281;BME280;4679;47.966;7.958;2024-03-07T09:37:45;97268.53;;;5.90;88.78
9281;BME280;4679;47.966;7.958;2024-03-07T09:39:46;97262.47;;;5.90;89.00
9281;BME280;4679;47.966;7.958;2024-03-07T09:41:49;97270.56;;;6.26;89.02
9281;BME280;4679;47.966;7.958;2024-03-07T09:43:52;97262.38;;;6.41;88.00
9281;BME280;4679;47.966;7.958;2024-03-07T09:45:55;97259.66;;;6.54;88.38
9281;BME280;4679;47.966;7.958;2024-03-07T09:47:57;97265.56;;;6.50;87.40
9281;BME280;4679;47.966;7.958;2024-03-07T09:49:58;97267.38;;;6.49;88.27
9281;BME280;4679;47.966;7.958;2024-03-07T09:52:00;97264.53;;;6.51;87.65
9281;BME280;4679;47.966;7.958;2024-03-07T09:54:03;97257.00;;;6.79;87.45
9281;BME280;4679;47.966;7.958;2024-03-07T09:56:06;97254.84;;;6.94;87.50
9281;BME280;4679;47.966;7.958;2024-03-07T09:58:08;97249.09;;;7.22;87.77
9281;BME280;4679;47.966;7.958;2024-03-07T10:00:12;97248.56;;;7.50;87.05
9281;BME280;4679;47.966;7.958;2024-03-07T10:02:23;97238.97;;;7.56;86.71
9281;BME280;4679;47.966;7.958;2024-03-07T10:04:29;97245.19;;;7.80;86.76
9281;BME280;4679;47.966;7.958;2024-03-07T10:06:33;97245.16;;;7.98;86.23
9281;BME280;4679;47.966;7.958;2024-03-07T10:08:34;97246.75;;;7.99;86.13
9281;BME280;4679;47.966;7.958;2024-03-07T10:10:37;97244.84;;;7.76;86.66
9281;BME280;4679;47.966;7.958;2024-03-07T10:12:38;97242.91;;;7.65;86.81
9281;BME280;4679;47.966;7.958;2024-03-07T10:14:48;97247.88;;;7.61;86.67
9281;BME280;4679;47.966;7.958;2024-03-07T10:16:49;97245.66;;;7.58;86.69
9281;BME280;4679;47.966;7.958;2024-03-07T10:18:51;97242.59;;;7.61;86.55
9281;BME280;4679;47.966;7.958;2024-03-07T10:20:53;97246.53;;;7.70;86.92
9281;BME280;4679;47.966;7.958;2024-03-07T10:22:54;97235.94;;;7.89;86.65
9281;BME280;4679;47.966;7.958;2024-03-07T10:24:57;97234.72;;;8.03;86.39
9281;BME280;4679;47.966;7.958;2024-03-07T10:27:00;97239.00;;;8.16;86.01
9281;BME280;4679;47.966;7.958;2024-03-07T10:29:01;97237.38;;;8.33;85.78
9281;BME280;4679;47.966;7.958;2024-03-07T10:31:05;97235.47;;;8.52;85.26
9281;BME280;4679;47.966;7.958;2024-03-07T10:33:12;97234.38;;;8.82;84.78
9281;BME280;4679;47.966;7.958;2024-03-07T10:35:20;97230.19;;;8.87;84.43
9281;BME280;4679;47.966;7.958;2024-03-07T10:37:22;97231.22;;;8.74;84.52
9281;BME280;4679;47.966;7.958;2024-03-07T10:39:26;97232.41;;;8.78;84.21
9281;BME280;4679;47.966;7.958;2024-03-07T10:41:28;97237.31;;;8.63;83.99
9281;BME280;4679;47.966;7.958;2024-03-07T10:43:36;97237.91;;;8.65;83.59
9281;BME280;4679;47.966;7.958;2024-03-07T10:45:43;97235.75;;;8.85;82.06
9281;BME280;4679;47.966;7.958;2024-03-07T10:47:49;97227.09;;;9.01;82.45
9281;BME280;4679;47.966;7.958;2024-03-07T10:50:04;97227.47;;;9.16;82.13
9281;BME280;4679;47.966;7.958;2024-03-07T10:52:27;97234.22;;;8.89;81.47
9281;BME280;4679;47.966;7.958;2024-03-07T10:54:36;97225.13;;;8.73;80.83
9281;BME280;4679;47.966;7.958;2024-03-07T10:56:54;97228.13;;;8.65;80.73
9281;BME280;4679;47.966;7.958;2024-03-07T10:59:04;97227.19;;;8.60;80.32
9281;BME280;4679;47.966;7.958;2024-03-07T11:01:10;97223.16;;;8.57;80.23
9281;BME280;4679;47.966;7.958;2024-03-07T11:03:14;97220.19;;;8.65;79.79
9281;BME280;4679;47.966;7.958;2024-03-07T11:05:20;97224.81;;;8.81;79.56
9281;BME280;4679;47.966;7.958;2024-03-07T11:07:24;97221.81;;;8.90;78.96
9281;BME280;4679;47.966;7.958;2024-03-07T11:09:28;97221.47;;;8.86;78.50
9281;BME280;4679;47.966;7.958;2024-03-07T11:11:33;97218.94;;;8.79;79.15
9281;BME280;4679;47.966;7.958;2024-03-07T11:13:35;97216.63;;;8.71;78.90
9281;BME280;4679;47.966;7.958;2024-03-07T11:15:41;97223.44;;;8.79;78.06
9281;BME280;4679;47.966;7.958;2024-03-07T11:17:44;97216.53;;;8.78;78.28
9281;BME280;4679;47.966;7.958;2024-03-07T11:19:46;97214.69;;;8.78;78.30
9281;BME280;4679;47.966;7.958;2024-03-07T11:21:50;97211.81;;;8.80;77.87
9281;BME280;4679;47.966;7.958;2024-03-07T11:23:51;97211.09;;;8.73;77.77
9281;BME280;4679;47.966;7.958;2024-03-07T11:25:55;97216.16;;;8.74;77.38
9281;BME280;4679;47.966;7.958;2024-03-07T11:27:57;97208.59;;;9.13;76.39
9281;BME280;4679;47.966;7.958;2024-03-07T11:30:04;97205.00;;;9.07;76.72
9281;BME280;4679;47.966;7.958;2024-03-07T11:32:09;97200.06;;;9.11;76.27
9281;BME280;4679;47.966;7.958;2024-03-07T11:34:12;97201.56;;;9.07;76.10
9281;BME280;4679;47.966;7.958;2024-03-07T11:36:43;97203.75;;;9.10;76.65
9281;BME280;4679;47.966;7.958;2024-03-07T11:38:47;97203.53;;;9.11;76.22
9281;BME280;4679;47.966;7.958;2024-03-07T11:40:50;97194.09;;;9.15;76.42
9281;BME280;4679;47.966;7.958;2024-03-07T11:42:52;97190.75;;;9.08;76.32
9281;BME280;4679;47.966;7.958;2024-03-07T11:44:54;97189.13;;;9.07;75.66
9281;BME280;4679;47.966;7.958;2024-03-07T11:46:57;97185.56;;;9.02;76.14
9281;BME280;4679;47.966;7.958;2024-03-07T11:49:01;97192.59;;;8.96;76.61
9281;BME280;4679;47.966;7.958;2024-03-07T11:51:02;97178.34;;;8.97;76.19
9281;BME280;4679;47.966;7.958;2024-03-07T11:53:05;97186.28;;;8.97;76.13
9281;BME280;4679;47.966;7.958;2024-03-07T11:55:08;97186.16;;;8.69;77.12
9281;BME280;4679;47.966;7.958;2024-03-07T11:57:09;97188.69;;;8.52;77.00
9281;BME280;4679;47.966;7.958;2024-03-07T11:59:13;97183.50;;;8.57;76.84
9281;BME280;4679;47.966;7.958;2024-03-07T12:01:14;97190.25;;;8.41;77.21
9281;BME280;4679;47.966;7.958;2024-03-07T12:03:18;97192.28;;;8.28;77.70
9281;BME280;4679;47.966;7.958;2024-03-07T12:05:22;97188.94;;;8.21;77.77
9281;BME280;4679;47.966;7.958;2024-03-07T12:07:23;97183.16;;;8.12;77.82
9281;BME280;4679;47.966;7.958;2024-03-07T12:09:25;97179.47;;;8.13;77.61
9281;BME280;4679;47.966;7.958;2024-03-07T12:11:26;97185.59;;;8.25;78.31
9281;BME280;4679;47.966;7.958;2024-03-07T12:13:28;97178.78;;;8.36;78.13
9281;BME280;4679;47.966;7.958;2024-03-07T12:15:30;97180.03;;;8.33;78.03
9281;BME280;4679;47.966;7.958;2024-03-07T12:17:32;97177.38;;;8.33;78.07
9281;BME280;4679;47.966;7.958;2024-03-07T12:19:34;97175.41;;;8.40;78.04
9281;BME280;4679;47.966;7.958;2024-03-07T12:21:37;97172.25;;;8.50;77.48
9281;BME280;4679;47.966;7.958;2024-03-07T12:23:39;97164.31;;;8.50;78.00
9281;BME280;4679;47.966;7.958;2024-03-07T12:25:41;97166.22;;;8.43;78.06
9281;BME280;4679;47.966;7.958;2024-03-07T12:27:43;97159.59;;;8.52;77.85
9281;BME280;4679;47.966;7.958;2024-03-07T12:29:44;97160.50;;;8.58;77.88
9281;BME280;4679;47.966;7.958;2024-03-07T12:31:48;97156.38;;;8.62;78.01
9281;BME280;4679;47.966;7.958;2024-03-07T12:33:50;97158.94;;;9.20;76.83
9281;BME280;4679;47.966;7.958;2024-03-07T12:35:53;97166.41;;;9.46;75.79
9281;BME280;4679;47.966;7.958;2024-03-07T12:38:02;97160.66;;;9.95;75.05
9281;BME280;4679;47.966;7.958;2024-03-07T12:40:11;97152.63;;;10.51;75.13
9281;BME280;4679;47.966;7.958;2024-03-07T12:42:18;97154.28;;;10.41;75.12
9281;BME280;4679;47.966;7.958;2024-03-07T12:44:20;97157.59;;;10.31;75.15
9281;BME280;4679;47.966;7.958;2024-03-07T12:46:22;97150.81;;;10.07;74.89
9281;BME280;4679;47.966;7.958;2024-03-07T12:48:23;97153.03;;;9.98;75.33
9281;BME280;4679;47.966;7.958;2024-03-07T12:50:25;97155.03;;;9.91;76.58
9281;BME280;4679;47.966;7.958;2024-03-07T12:52:27;97148.16;;;9.62;76.13
9281;BME280;4679;47.966;7.958;2024-03-07T12:54:30;97154.72;;;9.59;77.03
9281;BME280;4679;47.966;7.958;2024-03-07T12:56:31;97151.09;;;9.65;75.98
9281;BME280;4679;47.966;7.958;2024-03-07T12:58:35;97152.13;;;9.64;75.73
9281;BME280;4679;47.966;7.958;2024-03-07T13:00:36;97153.16;;;9.75;75.71
9281;BME280;4679;47.966;7.958;2024-03-07T13:02:38;97145.78;;;9.77;76.62
9281;BME280;4679;47.966;7.958;2024-03-07T13:04:39;97136.72;;;9.90;76.46
9281;BME280;4679;47.966;7.958;2024-03-07T13:06:40;97140.97;;;9.91;75.34
9281;BME280;4679;47.966;7.958;2024-03-07T13:08:43;97140.19;;;9.90;76.29
9281;BME280;4679;47.966;7.958;2024-03-07T13:10:47;97141.59;;;10.26;75.22
9281;BME280;4679;47.966;7.958;2024-03-07T13:12:48;97128.88;;;10.62;73.92
9281;BME280;4679;47.966;7.958;2024-03-07T13:14:49;97132.22;;;10.52;74.89
9281;BME280;4679;47.966;7.958;2024-03-07T13:16:50;97139.50;;;10.28;74.36
9281;BME280;4679;47.966;7.958;2024-03-07T13:18:52;97139.22;;;10.13;74.91
9281;BME280;4679;47.966;7.958;2024-03-07T13:20:54;97141.41;;;10.16;75.00
9281;BME280;4679;47.966;7.958;2024-03-07T13:22:55;97138.88;;;10.21;75.24
9281;BME280;4679;47.966;7.958;2024-03-07T13:24:59;97135.84;;;10.01;75.13
9281;BME280;4679;47.966;7.958;2024-03-07T13:27:05;97143.38;;;9.75;75.92
9281;BME280;4679;47.966;7.958;2024-03-07T13:29:11;97136.75;;;9.78;75.50
9281;BME280;4679;47.966;7.958;2024-03-07T13:31:13;97140.94;;;9.74;76.12
9281;BME280;4679;47.966;7.958;2024-03-07T13:33:17;97132.78;;;9.47;76.37
9281;BME280;4679;47.966;7.958;2024-03-07T13:35:19;97129.63;;;9.50;75.65
9281;BME280;4679;47.966;7.958;2024-03-07T13:37:21;97126.63;;;9.58;75.64
9281;BME280;4679;47.966;7.958;2024-03-07T13:39:23;97124.03;;;9.63;75.35
9281;BME280;4679;47.966;7.958;2024-03-07T13:41:25;97127.25;;;9.65;75.61
9281;BME280;4679;47.966;7.958;2024-03-07T13:43:30;97119.88;;;9.67;75.57
9281;BME280;4679;47.966;7.958;2024-03-07T13:45:35;97116.03;;;9.58;75.75
9281;BME280;4679;47.966;7.958;2024-03-07T13:47:39;97128.06;;;9.37;75.45
9281;BME280;4679;47.966;7.958;2024-03-07T13:49:40;97128.38;;;9.12;75.46
9281;BME280;4679;47.966;7.958;2024-03-07T13:51:43;97123.56;;;8.98;75.84
9281;BME280;4679;47.966;7.958;2024-03-07T13:53:53;97119.78;;;8.94;75.90
9281;BME280;4679;47.966;7.958;2024-03-07T13:56:30;97126.22;;;8.98;75.87
9281;BME280;4679;47.966;7.958;2024-03-07T13:58:47;97120.78;;;9.04;76.32
9281;BME280;4679;47.966;7.958;2024-03-07T14:00:55;97113.94;;;9.20;75.71
9281;BME280;4679;47.966;7.958;2024-03-07T14:03:31;97122.31;;;9.40;75.84
9281;BME280;4679;47.966;7.958;2024-03-07T14:05:56;97119.19;;;9.43;75.09
9281;BME280;4679;47.966;7.958;2024-03-07T14:08:22;97119.22;;;9.32;75.93
9281;BME280;4679;47.966;7.958;2024-03-07T14:10:51;97115.38;;;9.11;75.15
9281;BME280;4679;47.966;7.958;2024-03-07T14:13:18;97119.16;;;9.15;76.17
9281;BME280;4679;47.966;7.958;2024-03-07T14:15:49;97111.09;;;9.10;75.45
9281;BME280;4679;47.966;7.958;2024-03-07T14:18:20;97112.97;;;8.98;75.78
9281;BME280;4679;47.966;7.958;2024-03-07T14:20:46;97102.28;;;8.93;75.68
9281;BME280;4679;47.966;7.958;2024-03-07T14:23:07;97107.81;;;8.79;75.51
9281;BME280;4679;47.966;7.958;2024-03-07T14:25:41;97101.53;;;8.69;75.88
9281;BME280;4679;47.966;7.958;2024-03-07T14:28:03;97099.56;;;8.64;76.36
9281;BME280;4679;47.966;7.958;2024-03-07T14:30:21;97105.66;;;8.65;76.86
9281;BME280;4679;47.966;7.958;2024-03-07T14:32:27;97107.72;;;8.74;76.50
9281;BME280;4679;47.966;7.958;2024-03-07T14:34:37;97109.53;;;8.74;76.32
9281;BME280;4679;47.966;7.958;2024-03-07T14:36:51;97103.00;;;8.76;75.89
9281;BME280;4679;47.966;7.958;2024-03-07T14:38:56;97102.66;;;8.73;76.07
9281;BME280;4679;47.966;7.958;2024-03-07T14:40:58;97099.56;;;8.64;76.18
9281;BME280;4679;47.966;7.958;2024-03-07T14:43:02;97101.41;;;8.64;76.81
9281;BME280;4679;47.966;7.958;2024-03-07T14:45:05;97102.88;;;8.60;76.67
9281;BME280;4679;47.966;7.958;2024-03-07T14:47:08;97098.75;;;8.64;76.81
9281;BME280;4679;47.966;7.958;2024-03-07T14:49:15;97095.53;;;8.73;76.39
9281;BME280;4679;47.966;7.958;2024-03-07T14:51:17;97089.88;;;8.81;76.61
9281;BME280;4679;47.966;7.958;2024-03-07T14:53:19;97093.41;;;8.87;76.48
9281;BME280;4679;47.966;7.958;2024-03-07T14:55:21;97089.78;;;8.76;75.85
9281;BME280;4679;47.966;7.958;2024-03-07T14:57:23;97092.56;;;8.70;75.94
9281;BME280;4679;47.966;7.958;2024-03-07T14:59:25;97088.38;;;8.74;76.35
9281;BME280;4679;47.966;7.958;2024-03-07T15:01:27;97088.50;;;8.79;76.26
9281;BME280;4679;47.966;7.958;2024-03-07T15:03:31;97089.06;;;8.81;76.19
9281;BME280;4679;47.966;7.958;2024-03-07T15:05:34;97089.31;;;8.79;76.59
9281;BME280;4679;47.966;7.958;2024-03-07T15:07:35;97089.41;;;8.73;76.65
9281;BME280;4679;47.966;7.958;2024-03-07T15:09:37;97091.16;;;8.67;76.67
9281;BME280;4679;47.966;7.958;2024-03-07T15:11:38;97085.88;;;8.67;76.67
9281;BME280;4679;47.966;7.958;2024-03-07T15:13:40;97085.66;;;8.69;76.16
9281;BME280;4679;47.966;7.958;2024-03-07T15:15:43;97090.00;;;8.75;76.25
9281;BME280;4679;47.966;7.958;2024-03-07T15:17:45;97086.66;;;8.79;76.00
9281;BME280;4679;47.966;7.958;2024-03-07T15:19:47;97089.88;;;8.81;76.36
9281;BME280;4679;47.966;7.958;2024-03-07T15:21:49;97086.44;;;8.81;76.37
9281;BME280;4679;47.966;7.958;2024-03-07T15:23:52;97085.06;;;8.78;75.79
9281;BME280;4679;47.966;7.958;2024-03-07T15:25:53;97086.09;;;8.77;75.62
9281;BME280;4679;47.966;7.958;2024-03-07T15:27:56;97085.06;;;8.78;75.71
9281;BME280;4679;47.966;7.958;2024-03-07T15:29:58;97080.78;;;8.77;75.73
9281;BME280;4679;47.966;7.958;2024-03-07T15:31:59;97072.97;;;8.71;75.74
9281;BME280;4679;47.966;7.958;2024-03-07T15:34:03;97071.84;;;8.67;75.42
9281;BME280;4679;47.966;7.958;2024-03-07T15:36:04;97069.66;;;8.64;74.89
9281;BME280;4679;47.966;7.958;2024-03-07T15:38:07;97070.13;;;8.61;75.11
9281;BME280;4679;47.966;7.958;2024-03-07T15:40:10;97073.44;;;8.56;74.98
9281;BME280;4679;47.966;7.958;2024-03-07T15:42:12;97068.31;;;8.50;74.56
9281;BME280;4679;47.966;7.958;2024-03-07T15:44:15;97072.22;;;8.47;74.73
9281;BME280;4679;47.966;7.958;2024-03-07T15:46:16;97063.47;;;8.46;74.38
9281;BME280;4679;47.966;7.958;2024-03-07T15:48:18;97069.78;;;8.45;74.70
9281;BME280;4679;47.966;7.958;2024-03-07T15:50:22;97065.19;;;8.41;73.87
9281;BME280;4679;47.966;7.958;2024-03-07T15:52:25;97070.38;;;8.36;74.38
9281;BME280;4679;47.966;7.958;2024-03-07T15:54:28;97058.66;;;8.32;73.98
9281;BME280;4679;47.966;7.958;2024-03-07T15:56:30;97065.41;;;8.28;74.37
9281;BME280;4679;47.966;7.958;2024-03-07T15:58:32;97055.03;;;8.26;73.79
9281;BME280;4679;47.966;7.958;2024-03-07T16:00:33;97059.78;;;8.24;73.67
9281;BME280;4679;47.966;7.958;2024-03-07T16:02:34;97060.69;;;8.18;73.47
9281;BME280;4679;47.966;7.958;2024-03-07T16:04:37;97067.69;;;8.12;73.52
9281;BME280;4679;47.966;7.958;2024-03-07T16:06:42;97069.44;;;8.07;73.72
9281;BME280;4679;47.966;7.958;2024-03-07T16:08:44;97064.69;;;7.97;73.57
9281;BME280;4679;47.966;7.958;2024-03-07T16:10:47;97072.50;;;7.92;73.11
9281;BME280;4679;47.966;7.958;2024-03-07T16:12:47;97074.44;;;7.85;73.41
9281;BME280;4679;47.966;7.958;2024-03-07T16:14:49;97070.63;;;7.81;73.41
9281;BME280;4679;47.966;7.958;2024-03-07T16:16:52;97067.06;;;7.75;73.09
9281;BME280;4679;47.966;7.958;2024-03-07T16:18:54;97062.81;;;7.74;73.01
9281;BME280;4679;47.966;7.958;2024-03-07T16:20:57;97070.16;;;7.72;72.95
9281;BME280;4679;47.966;7.958;2024-03-07T16:22:59;97069.81;;;7.69;72.65
9281;BME280;4679;47.966;7.958;2024-03-07T16:25:00;97071.53;;;7.63;72.80
9281;BME280;4679;47.966;7.958;2024-03-07T16:27:03;97079.09;;;7.60;73.08
9281;BME280;4679;47.966;7.958;2024-03-07T16:29:05;97078.94;;;7.55;72.49
9281;BME280;4679;47.966;7.958;2024-03-07T16:31:07;97076.97;;;7.50;72.83
9281;BME280;4679;47.966;7.958;2024-03-07T16:33:09;97072.72;;;7.49;72.18
9281;BME280;4679;47.966;7.958;2024-03-07T16:35:11;97084.69;;;7.52;72.66
9281;BME280;4679;47.966;7.958;2024-03-07T16:37:12;97073.53;;;7.50;72.36
9281;BME280;4679;47.966;7.958;2024-03-07T16:39:13;97072.72;;;7.49;72.52
9281;BME280;4679;47.966;7.958;2024-03-07T16:41:15;97075.63;;;7.48;72.10
9281;BME280;4679;47.966;7.958;2024-03-07T16:43:18;97062.06;;;7.44;72.29
9281;BME280;4679;47.966;7.958;2024-03-07T16:45:21;97072.25;;;7.40;71.86
9281;BME280;4679;47.966;7.958;2024-03-07T16:47:23;97069.25;;;7.37;72.23
9281;BME280;4679;47.966;7.958;2024-03-07T16:49:23;97071.63;;;7.27;72.37
9281;BME280;4679;47.966;7.958;2024-03-07T16:51:26;97061.50;;;7.24;72.33
9281;BME280;4679;47.966;7.958;2024-03-07T16:53:28;97069.53;;;7.17;72.30
9281;BME280;4679;47.966;7.958;2024-03-07T16:55:34;97073.84;;;7.12;71.54
9281;BME280;4679;47.966;7.958;2024-03-07T16:57:38;97068.22;;;7.08;71.46
9281;BME280;4679;47.966;7.958;2024-03-07T16:59:41;97073.28;;;7.10;71.61
9281;BME280;4679;47.966;7.958;2024-03-07T17:01:41;97067.41;;;7.07;72.10
9281;BME280;4679;47.966;7.958;2024-03-07T17:03:45;97071.06;;;7.06;71.20
9281;BME280;4679;47.966;7.958;2024-03-07T17:05:47;97065.56;;;7.08;71.83
9281;BME280;4679;47.966;7.958;2024-03-07T17:07:50;97070.25;;;7.06;71.12
9281;BME280;4679;47.966;7.958;2024-03-07T17:09:51;97061.75;;;7.04;71.88
9281;BME280;4679;47.966;7.958;2024-03-07T17:11:53;97065.09;;;6.99;71.53
9281;BME280;4679;47.966;7.958;2024-03-07T17:13:54;97063.47;;;6.98;71.30
9281;BME280;4679;47.966;7.958;2024-03-07T17:15:57;97065.09;;;6.99;70.92
9281;BME280;4679;47.966;7.958;2024-03-07T17:17:59;97065.09;;;6.99;71.53
9281;BME280;4679;47.966;7.958;2024-03-07T17:20:00;97063.69;;;6.97;71.09
9281;BME280;4679;47.966;7.958;2024-03-07T17:22:01;97073.66;;;6.95;71.06
9281;BME280;4679;47.966;7.958;2024-03-07T17:24:03;97072.25;;;6.92;70.72
9281;BME280;4679;47.966;7.958;2024-03-07T17:26:04;97078.34;;;6.93;70.92
9281;BME280;4679;47.966;7.958;2024-03-07T17:28:06;97079.00;;;6.88;71.04
9281;BME280;4679;47.966;7.958;2024-03-07T17:30:07;97080.25;;;6.86;71.08
9281;BME280;4679;47.966;7.958;2024-03-07T17:32:10;97075.22;;;6.84;71.26
9281;BME280;4679;47.966;7.958;2024-03-07T17:34:10;97083.94;;;6.85;71.37
9281;BME280;4679;47.966;7.958;2024-03-07T17:36:14;97076.44;;;6.82;70.88
9281;BME280;4679;47.966;7.958;2024-03-07T17:38:17;97081.13;;;6.80;71.23
9281;BME280;4679;47.966;7.958;2024-03-07T17:40:21;97081.34;;;6.78;71.37
9281;BME280;4679;47.966;7.958;2024-03-07T17:42:26;97081.94;;;6.80;70.56
9281;BME280;4679;47.966;7.958;2024-03-07T17:44:29;97078.13;;;6.76;71.33
9281;BME280;4679;47.966;7.958;2024-03-07T17:46:32;97077.75;;;6.72;71.45
9281;BME280;4679;47.966;7.958;2024-03-07T17:48:34;97078.00;;;6.71;71.12
9281;BME280;4679;47.966;7.958;2024-03-07T17:50:36;97076.59;;;6.68;71.12
9281;BME280;4679;47.966;7.958;2024-03-07T17:52:38;97070.75;;;6.66;71.40
9281;BME280;4679;47.966;7.958;2024-03-07T17:54:39;97073.22;;;6.61;70.49
9281;BME280;4679;47.966;7.958;2024-03-07T17:56:46;97079.50;;;6.60;70.44
9281;BME280;4679;47.966;7.958;2024-03-07T17:58:48;97071.81;;;6.59;70.43
9281;BME280;4679;47.966;7.958;2024-03-07T18:00:48;97077.97;;;6.53;70.46
9281;BME280;4679;47.966;7.958;2024-03-07T18:02:50;97074.16;;;6.49;71.12
9281;BME280;4679;47.966;7.958;2024-03-07T18:04:52;97070.94;;;6.47;71.41
9281;BME280;4679;47.966;7.958;2024-03-07T18:06:53;97071.38;;;6.44;71.15
9281;BME280;4679;47.966;7.958;2024-03-07T18:08:55;97064.56;;;6.36;70.47
9281;BME280;4679;47.966;7.958;2024-03-07T18:10:56;97061.47;;;6.21;70.94
9281;BME280;4679;47.966;7.958;2024-03-07T18:13:00;97064.16;;;6.14;71.48
9281;BME280;4679;47.966;7.958;2024-03-07T18:15:02;97058.75;;;6.09;71.91
9281;BME280;4679;47.966;7.958;2024-03-07T18:17:10;97056.34;;;6.08;71.99